アティラウ の空港の天気 - METARとTAF

Atyrau Airport ( UATG / GUW ) - カザフスタン Atyrau
飛行場実況気象(Metar)
観測時間08/17 08:00 ORAT (08/17 03:00 UTC)
風向・風速東北東 2m/s
視程10km以上
天気現象
なし
気温22℃
湿度46%
気圧1019hPa
METARUATG 170300Z 06002MPS CAVOK 22/10 Q1019 R14/CLRD70 NOSIG RMK QFE766/1022
過去の天気等 Google飛行場航空写真 Wunderground天気予報

過去48時間のMETAR

飛行場予報(TAF)
発表時間: 8/17 04:02 ORAT (8/16 23:02 UTC)
予報対象時間: 17日5時 ORAT ~ 18日5時 ORAT
風向・風速東南東 8m/s
視程10km以上
全天の4割程度の積乱雲 雲底高度 1,010m
17日23時 ORAT ~ 17日24時 ORAT に徐々に
風向・風速不定 2m/s
TAF UATG 162302Z 1700/1724 12008MPS 9999 SCT033CB TX34/1712Z TN24/1701Z
BECMG 1718/1719 VRB02MPS